Time;durP1;ratioP1;P1;durP2;ratioP2;P2;SDS_P1;SDS_P2;PMS_P1;PMS_P2;Temp;Humidity;BMP_temperature;BMP_pressure;BME280_temperature;BME280_humidity;BME280_pressure;Samples;Min_cycle;Max_cycle;Signal;HPM_P1;HPM_P2
2022/10/12 00:00:32;;;;;;;;;;;;;;;;;;4957398;28;20409;-91
2022/10/12 00:02:57;;;;;;;;;;;;;;;;;;4957103;29;19961;-90
2022/10/12 00:05:23;;;;;;;;;;;;;;;;;;4939761;29;20409;-92
2022/10/12 00:07:48;;;;;;;;;;;;;;;;;;4957457;28;20278;-92
2022/10/12 00:10:14;;;;;;;;;;;;;;;;;;4957221;29;19930;-92
2022/10/12 00:12:39;;;;;;;;;;;;;;;;;;4940163;29;19919;-91
2022/10/12 00:15:05;;;;;;;;;;;;;;;;;;4957198;28;20409;-89
2022/10/12 00:17:30;;;;;;;;;;;;;;;;;;4956214;29;19928;-92
2022/10/12 00:19:56;;;;;;;;;;;;;;;;;;4939944;29;19918;-90
2022/10/12 00:22:21;;;;;;;;;;;;;;;;;;4939281;29;19929;-93
2022/10/12 00:24:47;;;;;;;;;;;;;;;;;;4957244;28;19930;-91
2022/10/12 00:27:12;;;;;;;;;;;;;;;;;;4955452;28;19918;-92
2022/10/12 00:29:37;;;;;;;;;;;;;;;;;;4943456;29;19915;-91
2022/10/12 00:32:03;;;;;;;;;;;;;;;;;;4940037;29;20272;-92
2022/10/12 00:34:29;;;;;;;;;;;;;;;;;;4957232;29;19918;-90
2022/10/12 00:36:54;;;;;;;;;;;;;;;;;;4939770;29;19941;-91
2022/10/12 00:39:20;;;;;;;;;;;;;;;;;;4957115;28;19919;-91
2022/10/12 00:41:45;;;;;;;;;;;;;;;;;;4956989;28;19918;-89
2022/10/12 00:44:49;;;;;;;;;;;;;;;;;;4957060;28;19929;-90
2022/10/12 00:47:17;;;;;;;;;;;;;;;;;;4916646;29;19920;-92
2022/10/12 00:49:45;;;;;;;;;;;;;;;;;;4900879;29;19967;-91
2022/10/12 00:52:12;;;;;;;;;;;;;;;;;;4900738;29;19926;-92
2022/10/12 00:54:42;;;;;;;;;;;;;;;;;;4917038;29;19923;-93
2022/10/12 00:57:09;;;;;;;;;;;;;;;;;;4887136;29;19923;-90
2022/10/12 01:00:01;;;;;;;;;;;;;;;;;;4897832;29;19919;-89
2022/10/12 01:02:28;;;;;;;;;;;;;;;;;;4894571;29;19923;-90
2022/10/12 01:04:54;;;;;;;;;;;;;;;;;;4897623;29;19920;-91
2022/10/12 01:07:19;;;;;;;;;;;;;;;;;;4897560;29;19942;-90
2022/10/12 01:09:45;;;;;;;;;;;;;;;;;;4882020;29;20016;-91
2022/10/12 01:12:10;;;;;;;;;;;;;;;;;;4897385;29;19919;-90
2022/10/12 01:14:36;;;;;;;;;;;;;;;;;;4881847;29;20037;-90
2022/10/12 01:17:10;;;;;;;;;;;;;;;;;;4903810;29;19919;-89
2022/10/12 01:19:39;;;;;;;;;;;;;;;;;;4956314;28;19925;-89
2022/10/12 01:22:06;;;;;;;;;;;;;;;;;;4956108;29;19985;-90
2022/10/12 01:24:41;;;;;;;;;;;;;;;;;;4955758;28;19924;-91
2022/10/12 01:27:22;;;;;;;;;;;;;;;;;;4938855;29;19946;-90
2022/10/12 01:30:06;;;;;;;;;;;;;;;;;;4956292;29;19950;-90
2022/10/12 01:32:42;;;;;;;;;;;;;;;;;;4956042;29;19918;-89
2022/10/12 01:35:26;;;;;;;;;;;;;;;;;;4939250;29;20357;-90
2022/10/12 01:37:56;;;;;;;;;;;;;;;;;;4938706;29;20339;-90
2022/10/12 01:40:26;;;;;;;;;;;;;;;;;;4956259;29;19942;-91
2022/10/12 01:42:53;;;;;;;;;;;;;;;;;;4955905;29;20406;-92
2022/10/12 01:45:19;;;;;;;;;;;;;;;;;;4938708;29;20013;-90
2022/10/12 01:47:51;;;;;;;;;;;;;;;;;;4955855;28;20018;-88
2022/10/12 01:50:17;;;;;;;;;;;;;;;;;;4938821;29;20356;-90
2022/10/12 01:52:52;;;;;;;;;;;;;;;;;;4955963;29;20331;-89
2022/10/12 01:55:29;;;;;;;;;;;;;;;;;;4957156;29;19922;-90
2022/10/12 01:58:14;;;;;;;;;;;;;;;;;;4959333;29;19918;-88
2022/10/12 02:00:42;;;;;;;;;;;;;;;;;;4939991;29;19922;-88
2022/10/12 02:03:08;;;;;;;;;;;;;;;;;;4938430;29;19922;-90
2022/10/12 02:05:36;;;;;;;;;;;;;;;;;;4936467;29;19929;-90
2022/10/12 02:08:02;;;;;;;;;;;;;;;;;;4955579;29;20408;-90
2022/10/12 02:10:32;;;;;;;;;;;;;;;;;;4955655;29;19997;-90
2022/10/12 02:12:59;;;;;;;;;;;;;;;;;;4955738;29;19926;-91
2022/10/12 02:15:25;;;;;;;;;;;;;;;;;;4939080;29;20276;-90
2022/10/12 02:17:51;;;;;;;;;;;;;;;;;;4975966;28;19907;-91
2022/10/12 02:20:18;;;;;;;;;;;;;;;;;;4977544;28;19949;-91
2022/10/12 02:22:45;;;;;;;;;;;;;;;;;;4979841;28;19911;-91
2022/10/12 02:25:13;;;;;;;;;;;;;;;;;;4974242;28;19926;-91
2022/10/12 02:27:41;;;;;;;;;;;;;;;;;;4961937;29;19926;-91
2022/10/12 02:30:07;;;;;;;;;;;;;;;;;;4958262;29;19929;-90
2022/10/12 02:32:54;;;;;;;;;;;;;;;;;;4955535;29;19919;-90
2022/10/12 02:35:23;;;;;;;;;;;;;;;;;;4955921;28;20013;-92
2022/10/12 02:37:51;;;;;;;;;;;;;;;;;;4958956;29;19929;-92
2022/10/12 02:40:35;;;;;;;;;;;;;;;;;;4959553;28;19925;-92
2022/10/12 02:43:20;;;;;;;;;;;;;;;;;;4955680;29;20062;-90
2022/10/12 02:45:47;;;;;;;;;;;;;;;;;;4956719;29;19923;-90
2022/10/12 02:48:15;;;;;;;;;;;;;;;;;;4956929;28;20016;-91
2022/10/12 02:50:40;;;;;;;;;;;;;;;;;;4959291;28;20075;-91
2022/10/12 02:53:06;;;;;;;;;;;;;;;;;;4958264;28;19958;-92
2022/10/12 02:55:36;;;;;;;;;;;;;;;;;;4958346;28;20001;-92
2022/10/12 02:58:01;;;;;;;;;;;;;;;;;;4942084;29;19923;-90
2022/10/12 03:00:27;;;;;;;;;;;;;;;;;;4958833;28;19970;-92
2022/10/12 03:02:52;;;;;;;;;;;;;;;;;;4940914;29;20334;-90
2022/10/12 03:05:17;;;;;;;;;;;;;;;;;;4958984;29;19926;-90
2022/10/12 03:07:43;;;;;;;;;;;;;;;;;;4958783;29;19919;-90
2022/10/12 03:10:08;;;;;;;;;;;;;;;;;;4958850;29;19926;-91
2022/10/12 03:12:34;;;;;;;;;;;;;;;;;;4958658;29;19918;-91
2022/10/12 03:14:59;;;;;;;;;;;;;;;;;;4958852;29;19918;-91
2022/10/12 03:17:24;;;;;;;;;;;;;;;;;;4958033;29;20282;-92
2022/10/12 03:19:50;;;;;;;;;;;;;;;;;;4941288;29;20437;-90
2022/10/12 03:22:15;;;;;;;;;;;;;;;;;;4941153;29;19996;-90
2022/10/12 03:24:41;;;;;;;;;;;;;;;;;;4958316;29;19929;-92
2022/10/12 03:27:06;;;;;;;;;;;;;;;;;;4950204;28;19927;-91
2022/10/12 03:29:32;;;;;;;;;;;;;;;;;;4957255;29;19926;-89
2022/10/12 03:31:57;;;;;;;;;;;;;;;;;;4957431;28;19926;-91
2022/10/12 03:34:22;;;;;;;;;;;;;;;;;;4941948;29;19937;-92
2022/10/12 03:36:48;;;;;;;;;;;;;;;;;;4958766;28;19919;-90
2022/10/12 03:39:13;;;;;;;;;;;;;;;;;;4958088;29;19953;-89
2022/10/12 03:41:39;;;;;;;;;;;;;;;;;;4957527;28;19957;-90
2022/10/12 03:44:04;;;;;;;;;;;;;;;;;;4957914;29;19966;-90
2022/10/12 03:46:30;;;;;;;;;;;;;;;;;;4956131;28;19922;-90
2022/10/12 03:48:55;;;;;;;;;;;;;;;;;;4940546;29;19919;-90
2022/10/12 03:51:20;;;;;;;;;;;;;;;;;;4957806;28;19925;-90
2022/10/12 03:53:46;;;;;;;;;;;;;;;;;;4940586;29;20005;-89
2022/10/12 03:56:11;;;;;;;;;;;;;;;;;;4958054;29;20013;-90
2022/10/12 03:58:37;;;;;;;;;;;;;;;;;;4957832;28;19923;-89
2022/10/12 04:01:02;;;;;;;;;;;;;;;;;;4954155;29;20359;-92
2022/10/12 04:03:28;;;;;;;;;;;;;;;;;;4954308;29;20334;-91
2022/10/12 04:05:54;;;;;;;;;;;;;;;;;;4932695;29;19922;-89
2022/10/12 04:08:20;;;;;;;;;;;;;;;;;;4957505;28;19922;-92
2022/10/12 04:10:45;;;;;;;;;;;;;;;;;;4957644;28;19926;-92
2022/10/12 04:13:10;;;;;;;;;;;;;;;;;;4957520;28;19919;-91
2022/10/12 04:15:36;;;;;;;;;;;;;;;;;;4957494;28;19926;-90
2022/10/12 04:18:01;;;;;;;;;;;;;;;;;;4957476;29;19918;-90
2022/10/12 04:20:27;;;;;;;;;;;;;;;;;;4940759;29;19923;-92
2022/10/12 04:22:52;;;;;;;;;;;;;;;;;;4957435;28;19922;-89
2022/10/12 04:25:18;;;;;;;;;;;;;;;;;;4957353;29;19919;-90
2022/10/12 04:27:43;;;;;;;;;;;;;;;;;;4958196;29;19926;-90
2022/10/12 04:30:09;;;;;;;;;;;;;;;;;;4940106;29;19929;-91
2022/10/12 04:32:34;;;;;;;;;;;;;;;;;;4940054;29;20374;-92
2022/10/12 04:35:00;;;;;;;;;;;;;;;;;;4939982;29;19918;-92
2022/10/12 04:37:26;;;;;;;;;;;;;;;;;;4940040;29;19923;-91
2022/10/12 04:39:52;;;;;;;;;;;;;;;;;;4939876;29;19989;-91
2022/10/12 04:42:17;;;;;;;;;;;;;;;;;;4957131;29;19965;-92
2022/10/12 04:44:42;;;;;;;;;;;;;;;;;;4939833;29;20363;-91
2022/10/12 04:47:08;;;;;;;;;;;;;;;;;;4939745;29;19922;-91
2022/10/12 04:49:33;;;;;;;;;;;;;;;;;;4939748;29;19926;-93
2022/10/12 04:51:59;;;;;;;;;;;;;;;;;;4939708;29;20378;-91
2022/10/12 04:54:24;;;;;;;;;;;;;;;;;;4939589;29;19918;-91
2022/10/12 04:56:49;;;;;;;;;;;;;;;;;;4939931;29;19926;-91
2022/10/12 04:59:15;;;;;;;;;;;;;;;;;;4956151;28;19922;-91
2022/10/12 05:01:40;;;;;;;;;;;;;;;;;;4956796;28;20382;-93
2022/10/12 05:04:06;;;;;;;;;;;;;;;;;;4939451;29;20331;-92
2022/10/12 05:06:31;;;;;;;;;;;;;;;;;;4939341;29;19961;-92
2022/10/12 05:08:56;;;;;;;;;;;;;;;;;;4939450;29;19918;-92
2022/10/12 05:11:22;;;;;;;;;;;;;;;;;;4956364;29;19915;-91
2022/10/12 05:13:47;;;;;;;;;;;;;;;;;;4956707;28;19922;-90
2022/10/12 05:16:13;;;;;;;;;;;;;;;;;;4968184;28;20285;-90
2022/10/12 05:18:38;;;;;;;;;;;;;;;;;;4975394;28;20006;-92
2022/10/12 05:21:04;;;;;;;;;;;;;;;;;;4957891;28;20066;-91
2022/10/12 05:23:48;;;;;;;;;;;;;;;;;;4948007;28;19988;-90
2022/10/12 05:26:14;;;;;;;;;;;;;;;;;;4956010;28;20351;-93
2022/10/12 05:28:39;;;;;;;;;;;;;;;;;;4938743;29;19964;-90
2022/10/12 05:31:04;;;;;;;;;;;;;;;;;;4955909;28;19922;-91
2022/10/12 05:33:30;;;;;;;;;;;;;;;;;;4938054;29;19933;-92
2022/10/12 05:35:55;;;;;;;;;;;;;;;;;;4947070;28;19923;-90
2022/10/12 05:38:21;;;;;;;;;;;;;;;;;;4919290;29;20395;-93
2022/10/12 05:40:46;;;;;;;;;;;;;;;;;;4919604;29;19981;-90
2022/10/12 05:43:11;;;;;;;;;;;;;;;;;;4919364;29;20320;-91
2022/10/12 05:45:37;;;;;;;;;;;;;;;;;;4935972;29;20326;-92
2022/10/12 05:48:02;;;;;;;;;;;;;;;;;;4947488;29;20026;-91
2022/10/12 05:50:28;;;;;;;;;;;;;;;;;;4938432;29;19958;-91
2022/10/12 05:52:53;;;;;;;;;;;;;;;;;;4938033;29;19922;-91
2022/10/12 05:55:18;;;;;;;;;;;;;;;;;;4938204;29;19946;-94
2022/10/12 05:57:44;;;;;;;;;;;;;;;;;;4938244;29;19918;-91
2022/10/12 06:00:09;;;;;;;;;;;;;;;;;;4955409;28;19997;-90
2022/10/12 06:02:35;;;;;;;;;;;;;;;;;;4938915;29;20290;-90
2022/10/12 06:05:01;;;;;;;;;;;;;;;;;;4956132;28;20366;-92
2022/10/12 06:07:27;;;;;;;;;;;;;;;;;;4937769;29;19958;-93
2022/10/12 06:09:52;;;;;;;;;;;;;;;;;;4955260;28;20013;-92
2022/10/12 06:12:17;;;;;;;;;;;;;;;;;;4938300;29;19926;-91
2022/10/12 06:14:43;;;;;;;;;;;;;;;;;;4938101;29;20021;-91
2022/10/12 06:17:08;;;;;;;;;;;;;;;;;;4959210;28;19933;-92
2022/10/12 06:19:34;;;;;;;;;;;;;;;;;;4948138;28;20302;-93
2022/10/12 06:22:00;;;;;;;;;;;;;;;;;;4949333;29;19910;-92
2022/10/12 06:24:25;;;;;;;;;;;;;;;;;;4960743;29;19978;-90
2022/10/12 06:26:50;;;;;;;;;;;;;;;;;;4931706;29;19923;-91
2022/10/12 06:29:16;;;;;;;;;;;;;;;;;;4936998;29;19922;-89
2022/10/12 06:31:42;;;;;;;;;;;;;;;;;;4919638;29;19973;-91
2022/10/12 06:34:07;;;;;;;;;;;;;;;;;;4936732;29;19923;-91
2022/10/12 06:36:33;;;;;;;;;;;;;;;;;;4919340;29;20054;-91
2022/10/12 06:38:58;;;;;;;;;;;;;;;;;;4918959;29;20399;-91
2022/10/12 06:41:23;;;;;;;;;;;;;;;;;;4919086;29;19935;-90
2022/10/12 06:43:49;;;;;;;;;;;;;;;;;;4936042;29;20454;-90
2022/10/12 06:46:14;;;;;;;;;;;;;;;;;;4935933;29;20374;-90
2022/10/12 06:48:40;;;;;;;;;;;;;;;;;;4936029;29;19933;-89
2022/10/12 06:51:05;;;;;;;;;;;;;;;;;;4918934;29;19966;-91
2022/10/12 06:53:31;;;;;;;;;;;;;;;;;;4919036;29;19935;-91
2022/10/12 06:55:57;;;;;;;;;;;;;;;;;;4919056;29;19925;-89
2022/10/12 06:58:23;;;;;;;;;;;;;;;;;;4919649;29;19919;-91
2022/10/12 07:00:48;;;;;;;;;;;;;;;;;;4919847;29;19923;-92
2022/10/12 07:03:15;;;;;;;;;;;;;;;;;;4920685;29;20334;-90
2022/10/12 07:05:40;;;;;;;;;;;;;;;;;;4920710;29;19918;-90
2022/10/12 07:08:06;;;;;;;;;;;;;;;;;;4920533;29;19925;-90
2022/10/12 07:10:34;;;;;;;;;;;;;;;;;;4920185;29;19923;-89
2022/10/12 07:12:59;;;;;;;;;;;;;;;;;;4919777;29;20379;-90
2022/10/12 07:15:24;;;;;;;;;;;;;;;;;;4918665;29;19950;-90
2022/10/12 07:17:50;;;;;;;;;;;;;;;;;;4918895;29;19922;-90
2022/10/12 07:20:15;;;;;;;;;;;;;;;;;;4918769;29;19927;-90
2022/10/12 07:22:41;;;;;;;;;;;;;;;;;;4920014;29;19922;-89
2022/10/12 07:25:06;;;;;;;;;;;;;;;;;;4922310;29;20434;-90
2022/10/12 07:27:32;;;;;;;;;;;;;;;;;;4939300;29;19931;-89
2022/10/12 07:29:57;;;;;;;;;;;;;;;;;;4948024;29;20393;-92
2022/10/12 07:32:23;;;;;;;;;;;;;;;;;;4941391;29;19922;-90
2022/10/12 07:34:48;;;;;;;;;;;;;;;;;;4941770;29;19922;-91
2022/10/12 07:37:14;;;;;;;;;;;;;;;;;;4958221;29;19930;-90
2022/10/12 07:39:40;;;;;;;;;;;;;;;;;;4958618;29;19918;-91
2022/10/12 07:42:06;;;;;;;;;;;;;;;;;;4941317;29;20013;-90
2022/10/12 07:44:31;;;;;;;;;;;;;;;;;;4941254;29;20291;-90
2022/10/12 07:46:57;;;;;;;;;;;;;;;;;;4940846;29;19918;-88
2022/10/12 07:49:22;;;;;;;;;;;;;;;;;;4958095;29;19969;-89
2022/10/12 07:51:48;;;;;;;;;;;;;;;;;;4940261;29;20424;-90
2022/10/12 07:54:13;;;;;;;;;;;;;;;;;;4941014;29;19919;-90
2022/10/12 07:56:39;;;;;;;;;;;;;;;;;;4941298;29;19992;-90
2022/10/12 07:59:04;;;;;;;;;;;;;;;;;;4958139;29;19922;-92
2022/10/12 08:01:30;;;;;;;;;;;;;;;;;;4941375;29;20286;-92
2022/10/12 08:03:56;;;;;;;;;;;;;;;;;;4940557;29;19922;-92
2022/10/12 08:06:22;;;;;;;;;;;;;;;;;;4957630;29;20009;-92
2022/10/12 08:08:48;;;;;;;;;;;;;;;;;;4957711;29;19955;-93
2022/10/12 08:11:14;;;;;;;;;;;;;;;;;;4940335;29;20285;-89
2022/10/12 08:13:40;;;;;;;;;;;;;;;;;;4940229;29;19918;-91
2022/10/12 08:16:07;;;;;;;;;;;;;;;;;;4957412;29;20298;-90
2022/10/12 08:18:32;;;;;;;;;;;;;;;;;;4940163;29;19970;-89
2022/10/12 08:20:58;;;;;;;;;;;;;;;;;;4943095;28;19922;-89
2022/10/12 08:23:23;;;;;;;;;;;;;;;;;;4976749;28;19965;-91
2022/10/12 08:25:52;;;;;;;;;;;;;;;;;;4959217;28;19941;-88
2022/10/12 08:28:18;;;;;;;;;;;;;;;;;;4976534;28;20370;-90
2022/10/12 08:30:43;;;;;;;;;;;;;;;;;;4958988;28;19921;-90
2022/10/12 08:33:09;;;;;;;;;;;;;;;;;;4959610;28;19918;-91
2022/10/12 08:35:37;;;;;;;;;;;;;;;;;;4975858;28;19914;-91
2022/10/12 08:38:02;;;;;;;;;;;;;;;;;;4959230;28;19976;-91
2022/10/12 08:40:29;;;;;;;;;;;;;;;;;;4959806;28;20369;-92
2022/10/12 08:43:03;;;;;;;;;;;;;;;;;;4958840;28;19977;-92
2022/10/12 08:45:44;;;;;;;;;;;;;;;;;;4976988;28;19933;-90
2022/10/12 08:48:12;;;;;;;;;;;;;;;;;;4958829;28;20286;-90
2022/10/12 08:50:41;;;;;;;;;;;;;;;;;;4958917;28;20398;-90
2022/10/12 08:53:14;;;;;;;;;;;;;;;;;;4958671;28;19925;-90
2022/10/12 08:55:42;;;;;;;;;;;;;;;;;;4958792;28;19957;-90
2022/10/12 08:58:14;;;;;;;;;;;;;;;;;;4977161;28;19941;-90
2022/10/12 09:00:40;;;;;;;;;;;;;;;;;;4961065;28;19922;-91
2022/10/12 09:03:05;;;;;;;;;;;;;;;;;;4962198;28;19918;-89
2022/10/12 09:05:39;;;;;;;;;;;;;;;;;;4959026;28;19925;-91
2022/10/12 09:08:24;;;;;;;;;;;;;;;;;;4958964;28;19929;-89
2022/10/12 09:10:57;;;;;;;;;;;;;;;;;;4977386;28;19925;-89
2022/10/12 09:13:28;;;;;;;;;;;;;;;;;;4972550;28;19919;-90
2022/10/12 09:16:14;;;;;;;;;;;;;;;;;;4937952;29;19919;-90
2022/10/12 09:18:41;;;;;;;;;;;;;;;;;;4937747;29;19926;-90
2022/10/12 09:21:08;;;;;;;;;;;;;;;;;;4938564;29;19994;-92
2022/10/12 09:23:38;;;;;;;;;;;;;;;;;;4956237;28;20267;-91
2022/10/12 09:26:14;;;;;;;;;;;;;;;;;;4938885;29;19918;-91
2022/10/12 09:28:42;;;;;;;;;;;;;;;;;;4956052;29;20263;-92
2022/10/12 09:31:07;;;;;;;;;;;;;;;;;;4955851;28;19965;-91
2022/10/12 09:33:40;;;;;;;;;;;;;;;;;;4939457;29;19958;-91
2022/10/12 09:36:08;;;;;;;;;;;;;;;;;;4938840;29;19919;-91
2022/10/12 09:38:35;;;;;;;;;;;;;;;;;;4938702;29;20021;-92
2022/10/12 09:41:00;;;;;;;;;;;;;;;;;;4939668;29;20025;-92
2022/10/12 09:43:26;;;;;;;;;;;;;;;;;;4955924;28;19963;-91
2022/10/12 09:45:51;;;;;;;;;;;;;;;;;;4938371;29;19954;-90
2022/10/12 09:48:21;;;;;;;;;;;;;;;;;;4939546;29;19951;-91
2022/10/12 09:50:55;;;;;;;;;;;;;;;;;;4956967;29;19958;-90
2022/10/12 09:53:20;;;;;;;;;;;;;;;;;;4938612;29;19929;-90
2022/10/12 09:55:53;;;;;;;;;;;;;;;;;;4938534;29;19914;-92
2022/10/12 09:58:19;;;;;;;;;;;;;;;;;;4938489;29;19925;-93
2022/10/12 10:01:05;;;;;;;;;;;;;;;;;;4956600;28;19926;-93
2022/10/12 10:03:30;;;;;;;;;;;;;;;;;;4939249;29;20263;-91
2022/10/12 10:06:03;;;;;;;;;;;;;;;;;;4938933;29;19987;-90
2022/10/12 10:08:28;;;;;;;;;;;;;;;;;;4956097;28;19922;-92
2022/10/12 10:10:55;;;;;;;;;;;;;;;;;;4938636;29;19969;-92
2022/10/12 10:13:22;;;;;;;;;;;;;;;;;;4937942;28;19926;-92
2022/10/12 10:15:50;;;;;;;;;;;;;;;;;;4955130;29;20024;-90
2022/10/12 10:18:19;;;;;;;;;;;;;;;;;;4959315;28;19946;-91
2022/10/12 10:21:04;;;;;;;;;;;;;;;;;;4979707;28;19914;-91
2022/10/12 10:23:31;;;;;;;;;;;;;;;;;;4952080;29;20372;-92
2022/10/12 10:26:08;;;;;;;;;;;;;;;;;;4943160;29;19942;-92
2022/10/12 10:28:36;;;;;;;;;;;;;;;;;;4938597;29;21939;-92
2022/10/12 10:31:03;;;;;;;;;;;;;;;;;;4938599;29;19969;-92
2022/10/12 10:33:30;;;;;;;;;;;;;;;;;;4938350;29;19918;-91
2022/10/12 10:36:04;;;;;;;;;;;;;;;;;;4938177;29;19923;-91
2022/10/12 10:38:30;;;;;;;;;;;;;;;;;;4955655;28;20383;-94
2022/10/12 10:40:56;;;;;;;;;;;;;;;;;;4957763;28;20317;-91
2022/10/12 10:43:26;;;;;;;;;;;;;;;;;;4957775;28;19961;-91
2022/10/12 10:45:57;;;;;;;;;;;;;;;;;;4957238;28;19960;-92
2022/10/12 10:48:25;;;;;;;;;;;;;;;;;;4974861;28;19922;-91
2022/10/12 10:50:59;;;;;;;;;;;;;;;;;;4974646;28;20321;-92
2022/10/12 10:53:26;;;;;;;;;;;;;;;;;;4974614;28;19968;-94
2022/10/12 10:55:54;;;;;;;;;;;;;;;;;;4974346;28;19982;-92
2022/10/12 10:58:35;;;;;;;;;;;;;;;;;;4959507;28;19919;-92
2022/10/12 11:01:05;;;;;;;;;;;;;;;;;;4962022;28;20341;-93
2022/10/12 11:06:49;;;;;;;;;;;;;;;;;;4978205;28;19993;-92
2022/10/12 11:09:24;;;;;;;;;;;;;;;;;;4960732;28;19918;-92
2022/10/12 11:11:53;;;;;;;;;;;;;;;;;;4961757;28;19918;-92
2022/10/12 11:14:21;;;;;;;;;;;;;;;;;;4960546;28;19962;-93
2022/10/12 11:16:58;;;;;;;;;;;;;;;;;;4960752;28;19918;-93
2022/10/12 11:19:26;;;;;;;;;;;;;;;;;;4960513;28;19918;-91
2022/10/12 11:22:01;;;;;;;;;;;;;;;;;;4960534;28;19944;-91
2022/10/12 11:25:02;;;;;;;;;;;;;;;;;;4947620;29;19922;-91
2022/10/12 11:27:39;;;;;;;;;;;;;;;;;;4924244;29;19949;-91
2022/10/12 11:30:24;;;;;;;;;;;;;;;;;;4955964;28;20368;-91
2022/10/12 11:33:06;;;;;;;;;;;;;;;;;;4943319;29;19918;-91
2022/10/12 11:35:33;;;;;;;;;;;;;;;;;;4941449;29;19918;-92
2022/10/12 11:37:59;;;;;;;;;;;;;;;;;;4941316;29;19918;-92
2022/10/12 11:40:41;;;;;;;;;;;;;;;;;;4959499;29;20464;-92
2022/10/12 11:43:11;;;;;;;;;;;;;;;;;;4959352;29;19915;-92
2022/10/12 11:45:39;;;;;;;;;;;;;;;;;;4973187;28;19922;-93
2022/10/12 11:48:27;;;;;;;;;;;;;;;;;;4972855;28;19925;-90
2022/10/12 11:50:56;;;;;;;;;;;;;;;;;;4922417;29;20001;-92
2022/10/12 11:53:33;;;;;;;;;;;;;;;;;;4942234;29;19961;-92
2022/10/12 11:56:02;;;;;;;;;;;;;;;;;;4939763;29;19919;-89
2022/10/12 11:58:33;;;;;;;;;;;;;;;;;;4922128;29;20394;-90
2022/10/12 12:01:24;;;;;;;;;;;;;;;;;;4926365;29;19919;-92
2022/10/12 12:04:01;;;;;;;;;;;;;;;;;;4941496;29;19918;-92
2022/10/12 12:06:30;;;;;;;;;;;;;;;;;;4923863;29;19923;-92
2022/10/12 12:09:01;;;;;;;;;;;;;;;;;;4925734;29;20013;-91
2022/10/12 12:11:28;;;;;;;;;;;;;;;;;;4924723;29;20006;-92
2022/10/12 12:14:12;;;;;;;;;;;;;;;;;;4923099;29;19966;-92
2022/10/12 12:16:41;;;;;;;;;;;;;;;;;;4925460;29;19922;-92
2022/10/12 12:19:25;;;;;;;;;;;;;;;;;;4943542;29;19953;-91
2022/10/12 12:22:09;;;;;;;;;;;;;;;;;;4923534;29;19947;-91
2022/10/12 12:24:35;;;;;;;;;;;;;;;;;;4941311;29;20027;-91
2022/10/12 12:27:01;;;;;;;;;;;;;;;;;;4939514;29;20009;-92
2022/10/12 12:29:26;;;;;;;;;;;;;;;;;;4940581;29;20009;-92
2022/10/12 12:31:55;;;;;;;;;;;;;;;;;;4925213;29;19950;-92
2022/10/12 12:34:21;;;;;;;;;;;;;;;;;;4923884;29;20394;-92
2022/10/12 12:36:48;;;;;;;;;;;;;;;;;;4924586;29;19918;-93
2022/10/12 12:39:22;;;;;;;;;;;;;;;;;;4922365;29;19970;-92
2022/10/12 12:41:52;;;;;;;;;;;;;;;;;;4939038;29;20405;-93
2022/10/12 12:44:33;;;;;;;;;;;;;;;;;;4937802;29;19923;-94
2022/10/12 12:47:01;;;;;;;;;;;;;;;;;;4937978;29;20025;-92
2022/10/12 12:49:27;;;;;;;;;;;;;;;;;;4921227;29;19919;-91
2022/10/12 12:51:53;;;;;;;;;;;;;;;;;;4922801;29;19970;-94
2022/10/12 12:54:20;;;;;;;;;;;;;;;;;;4924860;29;20268;-93
2022/10/12 12:56:46;;;;;;;;;;;;;;;;;;4925013;29;19926;-90
2022/10/12 12:59:35;;;;;;;;;;;;;;;;;;4939758;29;19918;-92
2022/10/12 13:02:04;;;;;;;;;;;;;;;;;;4939464;29;19923;-92
2022/10/12 13:04:52;;;;;;;;;;;;;;;;;;4937874;29;19926;-92
2022/10/12 13:07:30;;;;;;;;;;;;;;;;;;4933902;29;19923;-92
2022/10/12 13:10:08;;;;;;;;;;;;;;;;;;4921625;29;19919;-94
2022/10/12 13:12:46;;;;;;;;;;;;;;;;;;4937185;29;19926;-93
2022/10/12 13:15:11;;;;;;;;;;;;;;;;;;4921332;29;19926;-93
2022/10/12 13:17:40;;;;;;;;;;;;;;;;;;4938950;28;20302;-94
2022/10/12 13:20:16;;;;;;;;;;;;;;;;;;4959209;28;19925;-92
2022/10/12 13:22:43;;;;;;;;;;;;;;;;;;4958444;28;19929;-91
2022/10/12 13:25:13;;;;;;;;;;;;;;;;;;4958207;28;19922;-90
2022/10/12 13:27:47;;;;;;;;;;;;;;;;;;4975392;28;19922;-90
2022/10/12 13:30:18;;;;;;;;;;;;;;;;;;4958290;28;20779;-91
2022/10/12 13:32:48;;;;;;;;;;;;;;;;;;4943709;29;19934;-91
2022/10/12 13:35:17;;;;;;;;;;;;;;;;;;4956005;29;20013;-91
2022/10/12 13:37:42;;;;;;;;;;;;;;;;;;4956073;28;19954;-92
2022/10/12 13:40:30;;;;;;;;;;;;;;;;;;4965096;28;19962;-92
2022/10/12 13:42:56;;;;;;;;;;;;;;;;;;4975276;28;19918;-92
2022/10/12 13:45:21;;;;;;;;;;;;;;;;;;4959401;28;19929;-94
2022/10/12 13:47:47;;;;;;;;;;;;;;;;;;4975533;28;20445;-93
2022/10/12 13:50:17;;;;;;;;;;;;;;;;;;4974944;28;19918;-92
2022/10/12 13:52:50;;;;;;;;;;;;;;;;;;4959212;28;20437;-93
2022/10/12 13:55:15;;;;;;;;;;;;;;;;;;4958522;28;20309;-92
2022/10/12 13:57:45;;;;;;;;;;;;;;;;;;4975780;28;19918;-92
2022/10/12 14:00:16;;;;;;;;;;;;;;;;;;4957858;28;19918;-93
2022/10/12 14:02:51;;;;;;;;;;;;;;;;;;4957871;28;19918;-91
2022/10/12 14:05:19;;;;;;;;;;;;;;;;;;4974829;28;19918;-93
2022/10/12 14:07:45;;;;;;;;;;;;;;;;;;4958972;28;20034;-93
2022/10/12 14:10:20;;;;;;;;;;;;;;;;;;4960025;28;20009;-91
2022/10/12 14:12:47;;;;;;;;;;;;;;;;;;4977331;28;19914;-90
2022/10/12 14:15:13;;;;;;;;;;;;;;;;;;4963102;28;19907;-93
2022/10/12 14:17:43;;;;;;;;;;;;;;;;;;4953642;29;19934;-93
2022/10/12 14:20:15;;;;;;;;;;;;;;;;;;4959905;28;19929;-91
2022/10/12 14:22:44;;;;;;;;;;;;;;;;;;4955914;29;20306;-94
2022/10/12 14:25:14;;;;;;;;;;;;;;;;;;4938757;29;19926;-93
2022/10/12 14:27:39;;;;;;;;;;;;;;;;;;4938807;29;19978;-91
2022/10/12 14:30:21;;;;;;;;;;;;;;;;;;4955809;29;20367;-91
2022/10/12 14:32:47;;;;;;;;;;;;;;;;;;4938429;29;19925;-91
2022/10/12 14:35:23;;;;;;;;;;;;;;;;;;4955554;29;19922;-94
2022/10/12 14:37:49;;;;;;;;;;;;;;;;;;4952206;28;19973;-93
2022/10/12 14:40:30;;;;;;;;;;;;;;;;;;4951933;28;19926;-91
2022/10/12 14:42:59;;;;;;;;;;;;;;;;;;4960004;29;19914;-94
2022/10/12 14:45:25;;;;;;;;;;;;;;;;;;4969485;28;19909;-91
2022/10/12 14:47:50;;;;;;;;;;;;;;;;;;4950197;29;20013;-91
2022/10/12 14:50:17;;;;;;;;;;;;;;;;;;4944700;29;19942;-93
2022/10/12 14:52:44;;;;;;;;;;;;;;;;;;4957046;28;20242;-92
2022/10/12 14:55:20;;;;;;;;;;;;;;;;;;4958421;29;19919;-92
2022/10/12 14:57:46;;;;;;;;;;;;;;;;;;4938356;29;20334;-90
2022/10/12 15:00:13;;;;;;;;;;;;;;;;;;4938666;29;19915;-92
2022/10/12 15:02:40;;;;;;;;;;;;;;;;;;4938630;29;19926;-93
2022/10/12 15:05:05;;;;;;;;;;;;;;;;;;4955763;29;19914;-92
2022/10/12 15:07:32;;;;;;;;;;;;;;;;;;4956347;28;19966;-94
2022/10/12 15:09:58;;;;;;;;;;;;;;;;;;4956456;28;19915;-92
2022/10/12 15:12:24;;;;;;;;;;;;;;;;;;4956079;28;19924;-93
2022/10/12 15:14:51;;;;;;;;;;;;;;;;;;4955733;29;19918;-91
2022/10/12 15:17:17;;;;;;;;;;;;;;;;;;4955873;28;19962;-92
2022/10/12 15:19:43;;;;;;;;;;;;;;;;;;4956361;28;19918;-92
2022/10/12 15:22:10;;;;;;;;;;;;;;;;;;4937957;29;19981;-91
2022/10/12 15:24:35;;;;;;;;;;;;;;;;;;4937980;29;20012;-89
2022/10/12 15:27:01;;;;;;;;;;;;;;;;;;4954808;28;20009;-92
2022/10/12 15:29:26;;;;;;;;;;;;;;;;;;4954963;28;20005;-87
2022/10/12 15:31:52;;;;;;;;;;;;;;;;;;4937918;29;20420;-90
2022/10/12 15:34:17;;;;;;;;;;;;;;;;;;4937836;29;20001;-92
2022/10/12 15:36:43;;;;;;;;;;;;;;;;;;4937844;29;20487;-93
2022/10/12 15:39:08;;;;;;;;;;;;;;;;;;4938268;29;19922;-91
2022/10/12 15:41:34;;;;;;;;;;;;;;;;;;4955837;29;19922;-95
2022/10/12 15:43:59;;;;;;;;;;;;;;;;;;4956918;28;20382;-92
2022/10/12 15:46:26;;;;;;;;;;;;;;;;;;4941308;29;20032;-92
2022/10/12 15:48:51;;;;;;;;;;;;;;;;;;4958606;28;20374;-92
2022/10/12 15:51:22;;;;;;;;;;;;;;;;;;4958291;28;19929;-94
2022/10/12 15:53:48;;;;;;;;;;;;;;;;;;4958449;28;19930;-94
2022/10/12 15:56:14;;;;;;;;;;;;;;;;;;4941171;29;20010;-94
2022/10/12 15:58:40;;;;;;;;;;;;;;;;;;4958939;28;19950;-91
2022/10/12 16:01:06;;;;;;;;;;;;;;;;;;4941129;29;19969;-91
2022/10/12 16:03:31;;;;;;;;;;;;;;;;;;4958083;29;19918;-93
2022/10/12 16:05:57;;;;;;;;;;;;;;;;;;4940955;29;19925;-93
2022/10/12 16:08:23;;;;;;;;;;;;;;;;;;4940763;29;19929;-92
2022/10/12 16:10:48;;;;;;;;;;;;;;;;;;4941449;29;20386;-93
2022/10/12 16:13:15;;;;;;;;;;;;;;;;;;4958518;28;19919;-91
2022/10/12 16:15:41;;;;;;;;;;;;;;;;;;4940732;29;19926;-91
2022/10/12 16:18:06;;;;;;;;;;;;;;;;;;4940496;29;19925;-92
2022/10/12 16:20:35;;;;;;;;;;;;;;;;;;4940675;29;19925;-92
2022/10/12 16:23:00;;;;;;;;;;;;;;;;;;4940521;29;19974;-93
2022/10/12 16:25:26;;;;;;;;;;;;;;;;;;4957730;29;20016;-94
2022/10/12 16:27:53;;;;;;;;;;;;;;;;;;4957696;29;19925;-92
2022/10/12 16:30:19;;;;;;;;;;;;;;;;;;4957662;29;19937;-93
2022/10/12 16:32:44;;;;;;;;;;;;;;;;;;4940357;29;19942;-91
2022/10/12 16:35:10;;;;;;;;;;;;;;;;;;4940312;29;20283;-93
2022/10/12 16:37:35;;;;;;;;;;;;;;;;;;4957565;29;19961;-93
2022/10/12 16:40:02;;;;;;;;;;;;;;;;;;4957573;28;19926;-90
2022/10/12 16:42:28;;;;;;;;;;;;;;;;;;4957541;29;19965;-91
2022/10/12 16:44:53;;;;;;;;;;;;;;;;;;4940342;29;19949;-91
2022/10/12 16:47:18;;;;;;;;;;;;;;;;;;4939773;29;19922;-92
2022/10/12 16:49:44;;;;;;;;;;;;;;;;;;4940149;29;19966;-91
2022/10/12 16:52:09;;;;;;;;;;;;;;;;;;4957864;28;19918;-92
2022/10/12 16:54:35;;;;;;;;;;;;;;;;;;4956105;28;19923;-93
2022/10/12 16:57:00;;;;;;;;;;;;;;;;;;4941975;29;19918;-92